Time;durP1;ratioP1;P1;durP2;ratioP2;P2;SDS_P1;SDS_P2;PMS_P1;PMS_P2;Temp;Humidity;BMP_temperature;BMP_pressure;BME280_temperature;BME280_humidity;BME280_pressure;Samples;Min_cycle;Max_cycle;Signal;HPM_P1;HPM_P2
2023/06/23 00:00:01;;;;;;;19.42;11.20;;;16.30;99.90;;;;;;5110868;28;20035;-51
2023/06/23 00:02:27;;;;;;;16.27;11.43;;;16.20;99.90;;;;;;5074120;28;20036;-50
2023/06/23 00:04:53;;;;;;;18.85;12.43;;;16.30;99.90;;;;;;5106345;28;20020;-52
2023/06/23 00:07:19;;;;;;;18.63;12.02;;;16.30;99.90;;;;;;5099993;28;20495;-51
2023/06/23 00:09:44;;;;;;;16.50;12.43;;;16.30;99.90;;;;;;5091288;28;20081;-48
2023/06/23 00:12:10;;;;;;;19.85;12.63;;;16.40;99.90;;;;;;5082850;28;20033;-52
2023/06/23 00:14:36;;;;;;;18.08;12.07;;;16.40;99.90;;;;;;5109790;28;20430;-48
2023/06/23 00:17:02;;;;;;;19.15;12.00;;;16.40;99.90;;;;;;5077596;28;20493;-51
2023/06/23 00:19:28;;;;;;;14.80;10.38;;;16.30;99.90;;;;;;5110059;28;20119;-52
2023/06/23 00:21:53;;;;;;;16.33;12.38;;;16.40;99.90;;;;;;5099707;28;20454;-50
2023/06/23 00:24:19;;;;;;;18.13;11.77;;;16.30;99.90;;;;;;5091207;28;20396;-49
2023/06/23 00:26:44;;;;;;;15.18;12.15;;;16.40;99.90;;;;;;5108146;28;20078;-53
2023/06/23 00:29:10;;;;;;;14.88;10.90;;;16.40;99.90;;;;;;5097666;28;20391;-51
2023/06/23 00:31:36;;;;;;;17.85;11.65;;;16.40;99.90;;;;;;5109319;27;20383;-52
2023/06/23 00:34:01;;;;;;;15.85;11.43;;;16.40;99.90;;;;;;5090845;27;20028;-51
2023/06/23 00:36:30;;;;;;;16.42;12.05;;;16.40;99.90;;;;;;5107854;28;20519;-47
2023/06/23 00:38:56;;;;;;;15.65;11.40;;;16.40;99.90;;;;;;5110922;28;20064;-47
2023/06/23 00:41:21;;;;;;;15.93;11.55;;;16.40;99.90;;;;;;5094778;28;20031;-52
2023/06/23 00:43:50;;;;;;;16.67;11.75;;;16.40;99.90;;;;;;5110543;28;20373;-51
2023/06/23 00:46:20;;;;;;;16.95;12.25;;;16.50;99.90;;;;;;5093936;28;20023;-51
2023/06/23 00:48:46;;;;;;;17.60;12.48;;;16.50;99.90;;;;;;5110547;28;20460;-49
2023/06/23 00:51:15;;;;;;;16.30;11.85;;;16.50;99.90;;;;;;5093367;28;20032;-53
2023/06/23 00:53:47;;;;;;;15.63;12.05;;;16.50;99.90;;;;;;5110651;28;20081;-52
2023/06/23 00:56:18;;;;;;;16.15;12.65;;;16.50;99.90;;;;;;5078088;28;20513;-51
2023/06/23 00:58:45;;;;;;;15.80;12.43;;;16.50;99.90;;;;;;5110538;28;20030;-51
2023/06/23 01:01:10;;;;;;;19.10;13.07;;;16.60;99.90;;;;;;5092041;27;20032;-50
2023/06/23 01:03:37;;;;;;;19.77;12.63;;;16.60;99.90;;;;;;5110193;28;20054;-51
2023/06/23 01:06:16;;;;;;;14.32;11.63;;;16.60;99.90;;;;;;5089131;28;20027;-51
2023/06/23 01:08:53;;;;;;;17.80;13.57;;;16.60;99.90;;;;;;5110492;28;20404;-52
2023/06/23 01:11:35;;;;;;;18.90;13.38;;;16.60;99.90;;;;;;5078885;28;20023;-51
2023/06/23 01:14:11;;;;;;;15.02;11.73;;;16.60;99.90;;;;;;5109906;28;20387;-53
2023/06/23 01:16:47;;;;;;;20.10;13.60;;;16.60;99.90;;;;;;5083986;28;20446;-50
2023/06/23 01:19:20;;;;;;;;;;;16.60;99.90;;;;;;5069925;28;20070;-50
2023/06/23 01:22:04;;;;;;;20.77;13.85;;;16.60;99.90;;;;;;5086623;28;20287;-49
2023/06/23 01:24:57;;;;;;;16.65;12.05;;;16.60;99.90;;;;;;5073046;28;20123;-51
2023/06/23 01:27:47;;;;;;;17.80;11.40;;;16.70;99.90;;;;;;5109138;28;20026;-46
2023/06/23 01:30:16;;;;;;;14.13;11.30;;;16.70;99.90;;;;;;5083372;28;20116;-52
2023/06/23 01:32:49;;;;;;;17.95;12.65;;;16.80;99.90;;;;;;5087667;28;20070;-48
2023/06/23 01:35:21;;;;;;;16.45;12.02;;;16.90;99.90;;;;;;5083929;28;20035;-52
2023/06/23 01:37:53;;;;;;;21.27;12.95;;;17.00;99.90;;;;;;5067493;28;20542;-51
2023/06/23 01:40:23;;;;;;;18.10;12.57;;;17.00;99.90;;;;;;5085148;28;20202;-52
2023/06/23 01:42:56;;;;;;;15.73;11.95;;;17.00;99.90;;;;;;5067797;28;20408;-47
2023/06/23 01:45:24;;;;;;;16.77;11.57;;;17.00;99.90;;;;;;5087568;28;20034;-47
2023/06/23 01:47:51;;;;;;;16.83;11.23;;;17.00;99.90;;;;;;5089244;28;20077;-50
2023/06/23 01:50:19;;;;;;;18.25;11.00;;;17.00;99.90;;;;;;5106659;28;20058;-51
2023/06/23 01:52:46;;;;;;;17.15;12.70;;;17.00;99.90;;;;;;5087887;28;20024;-49
2023/06/23 01:55:13;;;;;;;15.30;11.43;;;17.00;99.90;;;;;;5106959;28;20028;-52
2023/06/23 01:57:41;;;;;;;16.38;11.95;;;16.90;99.90;;;;;;5089212;28;20057;-51
2023/06/23 02:00:11;;;;;;;15.10;12.18;;;16.90;99.90;;;;;;5106797;28;20496;-48
2023/06/23 02:02:38;;;;;;;19.02;12.80;;;16.90;99.90;;;;;;5088779;28;20024;-48
2023/06/23 02:05:04;;;;;;;19.77;12.43;;;16.80;99.90;;;;;;5100459;28;20027;-47
2023/06/23 02:07:31;;;;;;;20.80;13.68;;;16.80;99.90;;;;;;5089019;28;20028;-48
2023/06/23 02:09:57;;;;;;;20.15;13.68;;;16.80;99.90;;;;;;5106345;28;20449;-53
2023/06/23 02:12:23;;;;;;;23.58;14.25;;;16.70;99.90;;;;;;5109089;28;20053;-50
2023/06/23 02:14:50;;;;;;;17.85;12.45;;;16.80;99.90;;;;;;5092942;28;20403;-49
2023/06/23 02:17:17;;;;;;;20.02;13.73;;;16.80;99.90;;;;;;5109203;28;20055;-46
2023/06/23 02:19:46;;;;;;;17.35;12.25;;;16.80;99.90;;;;;;5091881;28;20051;-51
2023/06/23 02:22:20;;;;;;;15.20;10.93;;;16.80;99.90;;;;;;5108881;28;20028;-50
2023/06/23 02:24:47;;;;;;;17.80;12.00;;;16.80;99.90;;;;;;5076914;28;20027;-52
2023/06/23 02:27:12;;;;;;;17.67;12.32;;;16.80;99.90;;;;;;5109058;28;20031;-49
2023/06/23 02:29:41;;;;;;;17.42;11.93;;;16.80;99.90;;;;;;5089832;28;20577;-49
2023/06/23 02:32:07;;;;;;;19.00;13.00;;;16.80;99.90;;;;;;5107576;28;20035;-51
2023/06/23 02:34:35;;;;;;;20.30;14.07;;;16.70;99.90;;;;;;5090129;28;20120;-48
2023/06/23 02:37:03;;;;;;;23.00;13.88;;;16.70;99.90;;;;;;5109001;28;20725;-52
2023/06/23 02:39:37;;;;;;;19.63;13.18;;;16.80;99.90;;;;;;5089552;28;20047;-49
2023/06/23 02:42:04;;;;;;;21.88;14.13;;;16.80;99.90;;;;;;5108801;28;20028;-51
2023/06/23 02:44:35;;;;;;;20.00;13.82;;;16.80;99.90;;;;;;5089811;28;20020;-50
2023/06/23 02:47:03;;;;;;;19.40;12.25;;;16.70;99.90;;;;;;5108631;28;20028;-50
2023/06/23 02:49:30;;;;;;;18.85;13.23;;;16.80;99.90;;;;;;5089685;28;20031;-49
2023/06/23 02:51:59;;;;;;;22.55;14.23;;;16.80;99.90;;;;;;5108625;28;20090;-52
2023/06/23 02:54:26;;;;;;;18.52;12.52;;;16.80;99.90;;;;;;5088634;28;20028;-50
2023/06/23 02:56:54;;;;;;;18.90;13.30;;;16.80;99.90;;;;;;5108699;28;20024;-47
2023/06/23 02:59:21;;;;;;;26.20;14.98;;;16.80;99.90;;;;;;5088061;28;20228;-49
2023/06/23 03:01:52;;;;;;;22.08;14.25;;;16.80;99.90;;;;;;5108498;28;20050;-47
2023/06/23 03:04:18;;;;;;;18.30;13.25;;;16.90;99.90;;;;;;5068663;28;20067;-51
2023/06/23 03:06:44;;;;;;;17.95;12.38;;;16.90;99.90;;;;;;5105330;28;20051;-48
2023/06/23 03:09:09;;;;;;;21.80;15.50;;;16.90;99.90;;;;;;5086832;28;20036;-47
2023/06/23 03:11:36;;;;;;;21.25;15.10;;;16.90;99.90;;;;;;5108315;28;20023;-48
2023/06/23 03:14:03;;;;;;;20.13;14.05;;;16.80;99.90;;;;;;5088847;28;20065;-49
2023/06/23 03:16:43;;;;;;;24.13;16.85;;;16.90;99.90;;;;;;5066718;28;20090;-51
2023/06/23 03:19:36;;;;;;;21.00;15.25;;;16.80;99.90;;;;;;5067921;28;20037;-49
2023/06/23 03:22:10;;;;;;;21.50;15.40;;;16.80;99.90;;;;;;5068030;28;20029;-52
2023/06/23 03:24:41;;;;;;;21.58;14.52;;;16.80;99.90;;;;;;5074275;28;20043;-53
2023/06/23 03:27:08;;;;;;;20.65;14.98;;;16.90;99.90;;;;;;5112262;28;20566;-53
2023/06/23 03:29:40;;;;;;;24.23;16.10;;;16.80;99.90;;;;;;5091606;28;20044;-53
2023/06/23 03:32:07;;;;;;;20.70;15.88;;;16.80;99.90;;;;;;5111414;28;20413;-53
2023/06/23 03:34:39;;;;;;;20.80;14.40;;;16.80;99.90;;;;;;5093510;27;20035;-53
2023/06/23 03:37:07;;;;;;;26.23;15.45;;;16.80;99.90;;;;;;5112019;28;20483;-51
2023/06/23 03:39:36;;;;;;;20.38;15.20;;;16.80;99.90;;;;;;5093122;28;20564;-51
2023/06/23 03:42:03;;;;;;;17.88;13.60;;;16.80;99.90;;;;;;5111872;28;20110;-51
2023/06/23 03:44:33;;;;;;;23.38;15.77;;;16.80;99.90;;;;;;5087859;28;20718;-54
2023/06/23 03:47:28;;;;;;;19.15;14.30;;;16.80;99.90;;;;;;5091419;28;20009;-52
2023/06/23 03:50:10;;;;;;;26.02;15.48;;;16.80;99.90;;;;;;5087378;28;20055;-52
2023/06/23 03:52:38;;;;;;;21.90;15.93;;;16.80;99.90;;;;;;5071294;28;20052;-50
2023/06/23 03:55:06;;;;;;;24.17;16.10;;;16.80;99.90;;;;;;5109366;28;20118;-52
2023/06/23 03:57:33;;;;;;;24.00;16.10;;;16.80;99.90;;;;;;5091429;27;20060;-51
2023/06/23 04:00:01;;;;;;;23.50;15.30;;;16.80;99.90;;;;;;5108946;28;20120;-52
2023/06/23 04:02:30;;;;;;;22.70;16.50;;;16.80;99.90;;;;;;5091559;28;20055;-51
2023/06/23 04:04:57;;;;;;;24.73;14.90;;;16.80;99.90;;;;;;5106067;28;20106;-50
2023/06/23 04:07:26;;;;;;;22.98;15.50;;;16.80;99.90;;;;;;5091343;28;20036;-53
2023/06/23 04:09:53;;;;;;;20.70;15.15;;;16.80;99.90;;;;;;5108499;28;20047;-49
2023/06/23 04:12:21;;;;;;;18.17;13.18;;;16.90;99.90;;;;;;5091565;28;20028;-51
2023/06/23 04:14:49;;;;;;;18.60;12.88;;;16.90;99.90;;;;;;5108835;28;20080;-49
2023/06/23 04:17:17;;;;;;;22.10;13.38;;;17.00;99.90;;;;;;5090943;28;20028;-51
2023/06/23 04:19:45;;;;;;;15.32;11.13;;;17.00;99.90;;;;;;5109038;28;20035;-49
2023/06/23 04:22:14;;;;;;;17.35;12.18;;;17.10;99.90;;;;;;5091106;28;20031;-53
2023/06/23 04:24:40;;;;;;;14.52;11.82;;;17.10;99.90;;;;;;5108913;28;20076;-55
2023/06/23 04:27:10;;;;;;;14.38;11.60;;;17.20;99.90;;;;;;5089665;28;20119;-54
2023/06/23 04:29:38;;;;;;;14.25;11.68;;;17.30;99.90;;;;;;5090688;28;20058;-55
2023/06/23 04:32:03;;;;;;;19.67;13.57;;;17.30;99.90;;;;;;5110107;28;20027;-55
2023/06/23 04:34:29;;;;;;;16.83;12.57;;;17.30;99.90;;;;;;5095677;28;20019;-56
2023/06/23 04:37:07;;;;;;;20.73;13.57;;;17.40;99.90;;;;;;5110047;28;20050;-56
2023/06/23 04:39:56;;;;;;;16.48;12.48;;;17.40;99.90;;;;;;5081982;28;20032;-55
2023/06/23 04:42:26;;;;;;;22.27;14.63;;;17.50;99.90;;;;;;5074516;28;20035;-55
2023/06/23 04:44:55;;;;;;;20.02;14.07;;;17.40;99.90;;;;;;5110597;28;20035;-56
2023/06/23 04:47:22;;;;;;;15.50;12.68;;;17.40;99.90;;;;;;5096847;28;20115;-55
2023/06/23 04:49:54;;;;;;;14.77;11.60;;;17.40;99.90;;;;;;5090549;27;20039;-51
2023/06/23 04:52:21;;;;;;;17.20;14.43;;;17.40;99.90;;;;;;5088063;28;20341;-53
2023/06/23 04:54:49;;;;;;;15.40;12.13;;;17.50;99.90;;;;;;5095037;28;20551;-53
2023/06/23 04:57:19;;;;;;;19.20;12.82;;;17.40;99.90;;;;;;5103002;28;20042;-56
2023/06/23 04:59:51;;;;;;;15.50;11.55;;;17.50;99.90;;;;;;5075244;28;20029;-50
2023/06/23 05:02:19;;;;;;;16.95;11.65;;;17.60;99.90;;;;;;5068795;28;20041;-54
2023/06/23 05:04:47;;;;;;;12.88;10.40;;;17.60;99.90;;;;;;5086061;28;20043;-54
2023/06/23 05:07:14;;;;;;;17.27;12.38;;;17.60;99.90;;;;;;5089247;28;20020;-52
2023/06/23 05:09:44;;;;;;;18.23;12.98;;;17.50;99.90;;;;;;5089764;28;20028;-51
2023/06/23 05:12:11;;;;;;;17.48;13.23;;;17.50;99.90;;;;;;5067913;28;20036;-52
2023/06/23 05:14:40;;;;;;;17.75;13.35;;;17.40;99.90;;;;;;5109010;28;20036;-52
2023/06/23 05:17:09;;;;;;;16.25;11.27;;;17.40;99.90;;;;;;5070316;28;20020;-52
2023/06/23 05:19:38;;;;;;;16.15;12.73;;;17.50;99.90;;;;;;5109513;28;20029;-54
2023/06/23 05:22:08;;;;;;;17.17;11.30;;;17.60;99.90;;;;;;5070793;28;20024;-54
2023/06/23 05:24:38;;;;;;;16.10;12.52;;;17.60;99.90;;;;;;5069477;28;20401;-52
2023/06/23 05:27:08;;;;;;;15.85;11.80;;;17.70;99.90;;;;;;5073786;28;20476;-54
2023/06/23 05:29:37;;;;;;;13.57;10.77;;;17.70;99.90;;;;;;5098654;28;20739;-54
2023/06/23 05:32:06;;;;;;;17.30;12.90;;;17.80;99.90;;;;;;5073759;28;20040;-51
2023/06/23 05:34:32;;;;;;;21.38;14.40;;;17.70;99.90;;;;;;5107879;28;20028;-51
2023/06/23 05:37:01;;;;;;;18.15;14.05;;;17.70;99.90;;;;;;5071848;28;20024;-54
2023/06/23 05:39:29;;;;;;;15.90;13.23;;;17.70;99.90;;;;;;5108996;28;20138;-53
2023/06/23 05:41:55;;;;;;;19.20;14.85;;;17.70;99.90;;;;;;5071733;28;20028;-52
2023/06/23 05:44:20;;;;;;;16.95;13.18;;;17.70;99.90;;;;;;5108352;28;20453;-54
2023/06/23 05:46:48;;;;;;;14.90;11.88;;;17.70;99.90;;;;;;5073058;28;20029;-53
2023/06/23 05:49:16;;;;;;;16.75;13.13;;;17.70;99.90;;;;;;5108145;28;20046;-51
2023/06/23 05:51:42;;;;;;;16.00;12.40;;;17.70;99.90;;;;;;5073637;28;20024;-53
2023/06/23 05:54:11;;;;;;;20.30;13.85;;;17.70;99.90;;;;;;5108178;28;20038;-54
2023/06/23 05:56:43;;;;;;;14.00;11.90;;;17.70;99.90;;;;;;5073830;28;20028;-52
2023/06/23 05:59:18;;;;;;;16.73;12.65;;;17.70;99.90;;;;;;5088990;28;20065;-54
2023/06/23 06:01:48;;;;;;;18.90;13.03;;;17.70;99.90;;;;;;5066814;28;20036;-54
2023/06/23 06:04:17;;;;;;;17.33;12.90;;;17.70;99.90;;;;;;5068888;28;20086;-53
2023/06/23 06:06:45;;;;;;;17.85;13.60;;;17.70;99.90;;;;;;5105437;28;20027;-53
2023/06/23 06:09:12;;;;;;;14.32;12.20;;;17.70;99.90;;;;;;5067137;28;20040;-50
2023/06/23 06:11:41;;;;;;;16.98;14.05;;;17.80;99.90;;;;;;5108465;28;20028;-53
2023/06/23 06:14:08;;;;;;;18.38;13.82;;;17.90;99.90;;;;;;5067949;28;20074;-55
2023/06/23 06:16:36;;;;;;;19.42;15.13;;;17.80;99.90;;;;;;5108162;28;20106;-55
2023/06/23 06:19:02;;;;;;;19.73;13.90;;;17.80;99.90;;;;;;5088665;28;20035;-54
2023/06/23 06:21:30;;;;;;;19.92;14.88;;;17.90;99.90;;;;;;5108794;28;20036;-55
2023/06/23 06:23:57;;;;;;;19.73;13.57;;;17.90;99.90;;;;;;5069411;28;20031;-52
2023/06/23 06:26:24;;;;;;;16.15;13.80;;;17.90;99.90;;;;;;5108158;28;20544;-53
2023/06/23 06:28:51;;;;;;;19.65;14.20;;;17.90;99.90;;;;;;5078341;28;20093;-53
2023/06/23 06:31:18;;;;;;;15.25;13.07;;;17.90;99.90;;;;;;5109213;28;20019;-54
2023/06/23 06:33:48;;;;;;;17.38;14.60;;;18.00;99.90;;;;;;5070925;28;20028;-53
2023/06/23 06:36:15;;;;;;;19.85;14.93;;;18.00;99.90;;;;;;5108855;28;20080;-54
2023/06/23 06:38:42;;;;;;;19.02;13.93;;;18.00;99.90;;;;;;5071443;28;20039;-54
2023/06/23 06:41:08;;;;;;;18.08;13.27;;;18.00;99.90;;;;;;5108076;28;20080;-55
2023/06/23 06:43:34;;;;;;;18.10;13.68;;;18.00;99.90;;;;;;5072462;28;20044;-55
2023/06/23 06:46:01;;;;;;;22.40;16.13;;;18.10;99.90;;;;;;5107780;28;20035;-55
2023/06/23 06:48:28;;;;;;;20.98;15.77;;;18.10;99.90;;;;;;5073407;28;20032;-54
2023/06/23 06:50:55;;;;;;;19.48;15.38;;;18.20;99.90;;;;;;5107868;28;20507;-55
2023/06/23 06:53:21;;;;;;;19.17;15.88;;;18.10;99.90;;;;;;5074148;28;20040;-55
2023/06/23 06:55:47;;;;;;;21.80;16.33;;;18.20;99.90;;;;;;5107534;28;20046;-55
2023/06/23 06:58:15;;;;;;;18.48;14.82;;;18.30;99.90;;;;;;5075143;28;20032;-56
2023/06/23 07:00:41;;;;;;;21.63;16.10;;;18.30;99.90;;;;;;5110296;28;20024;-55
2023/06/23 07:03:07;;;;;;;17.13;14.40;;;18.40;99.90;;;;;;5079753;28;20447;-55
2023/06/23 07:05:33;;;;;;;19.77;16.70;;;18.50;99.90;;;;;;5098132;28;20114;-54
2023/06/23 07:07:58;;;;;;;18.67;14.07;;;18.60;99.90;;;;;;5090235;28;20119;-56
2023/06/23 07:10:24;;;;;;;17.42;15.50;;;18.60;99.90;;;;;;5111243;28;20134;-56
2023/06/23 07:12:50;;;;;;;19.42;15.40;;;18.60;99.90;;;;;;5080893;28;20024;-57
2023/06/23 07:15:15;;;;;;;16.88;13.23;;;18.60;99.90;;;;;;5111252;28;20123;-56
2023/06/23 07:17:40;;;;;;;16.95;14.38;;;18.70;99.90;;;;;;5083281;28;20455;-57
2023/06/23 07:20:07;;;;;;;14.93;13.40;;;18.80;99.90;;;;;;5071939;28;20032;-59
2023/06/23 07:22:33;;;;;;;18.00;15.13;;;18.90;99.90;;;;;;5096737;28;20128;-57
2023/06/23 07:24:58;;;;;;;17.13;13.57;;;18.90;99.90;;;;;;5072081;28;20047;-57
2023/06/23 07:27:24;;;;;;;16.02;14.20;;;19.00;99.90;;;;;;5097590;28;20472;-58
2023/06/23 07:29:50;;;;;;;19.05;14.82;;;19.00;99.90;;;;;;5096654;28;20105;-58
2023/06/23 07:32:15;;;;;;;17.83;14.95;;;19.20;99.90;;;;;;5086600;28;20020;-58
2023/06/23 07:34:41;;;;;;;19.13;15.45;;;19.30;99.90;;;;;;5071598;28;20609;-58
2023/06/23 07:37:10;;;;;;;15.65;14.00;;;19.40;99.90;;;;;;5103623;28;20747;-58
2023/06/23 07:39:36;;;;;;;17.10;15.30;;;19.60;99.90;;;;;;5071453;28;20082;-58
2023/06/23 07:42:02;;;;;;;18.08;15.50;;;19.60;99.90;;;;;;5104940;28;20118;-59
2023/06/23 07:44:28;;;;;;;16.85;15.13;;;19.70;99.90;;;;;;5071418;28;20226;-59
2023/06/23 07:46:53;;;;;;;17.05;15.25;;;19.50;99.90;;;;;;5106866;28;20533;-58
2023/06/23 07:49:19;;;;;;;17.95;15.43;;;19.40;99.90;;;;;;5071354;28;20024;-58
2023/06/23 07:51:44;;;;;;;18.20;15.30;;;19.40;99.90;;;;;;5110461;28;20051;-58
2023/06/23 07:54:10;;;;;;;18.15;15.07;;;19.20;99.90;;;;;;5069945;28;20063;-59
2023/06/23 07:56:35;;;;;;;18.27;13.20;;;19.20;99.90;;;;;;5110390;28;20027;-58
2023/06/23 07:59:01;;;;;;;15.82;14.13;;;19.20;99.90;;;;;;5071352;28;20159;-59
2023/06/23 08:01:26;;;;;;;17.02;15.23;;;19.20;99.90;;;;;;5110296;28;20106;-59
2023/06/23 08:03:52;;;;;;;16.13;13.73;;;19.10;99.90;;;;;;5072554;28;20033;-58
2023/06/23 08:06:23;;;;;;;15.70;14.07;;;19.10;99.90;;;;;;5106909;28;20028;-59
2023/06/23 08:08:51;;;;;;;18.25;14.13;;;19.10;99.90;;;;;;5069036;28;20111;-59
2023/06/23 08:11:17;;;;;;;15.85;12.88;;;19.10;99.90;;;;;;5110671;28;20430;-59
2023/06/23 08:13:43;;;;;;;18.45;15.93;;;19.10;99.90;;;;;;5073856;28;20029;-58
2023/06/23 08:16:09;;;;;;;21.15;15.52;;;19.00;99.90;;;;;;5110217;28;20070;-58
2023/06/23 08:18:35;;;;;;;17.58;14.95;;;19.00;99.90;;;;;;5074451;28;20032;-58
2023/06/23 08:21:02;;;;;;;16.25;14.55;;;18.90;99.90;;;;;;5109926;28;20491;-58
2023/06/23 08:23:28;;;;;;;15.75;13.95;;;19.00;99.90;;;;;;5075321;28;20042;-59
2023/06/23 08:25:54;;;;;;;18.40;15.45;;;19.00;99.90;;;;;;5109869;28;20031;-58
2023/06/23 08:28:19;;;;;;;17.65;14.30;;;19.00;99.90;;;;;;5076738;28;20036;-58
2023/06/23 08:30:45;;;;;;;17.58;15.18;;;19.00;99.90;;;;;;5090748;28;20039;-58
2023/06/23 08:33:10;;;;;;;20.35;15.70;;;19.00;99.90;;;;;;5085479;28;20020;-58
2023/06/23 08:35:36;;;;;;;15.52;13.80;;;18.90;99.90;;;;;;5109747;28;20476;-58
2023/06/23 08:38:01;;;;;;;20.30;14.57;;;19.00;99.90;;;;;;5078964;28;20036;-58
2023/06/23 08:40:27;;;;;;;20.30;15.70;;;19.10;99.90;;;;;;5109591;28;20510;-58
2023/06/23 08:42:53;;;;;;;27.33;16.30;;;19.20;99.90;;;;;;5079931;28;20032;-58
2023/06/23 08:45:20;;;;;;;21.42;14.85;;;19.50;99.90;;;;;;5109719;28;20036;-58
2023/06/23 08:47:51;;;;;;;19.15;14.23;;;19.80;99.90;;;;;;5079407;28;20021;-59
2023/06/23 08:50:16;;;;;;;14.00;12.50;;;20.10;99.90;;;;;;5070151;28;20033;-58
2023/06/23 08:52:42;;;;;;;23.13;14.38;;;20.30;99.90;;;;;;5091451;28;20047;-58
2023/06/23 08:55:09;;;;;;;17.15;11.82;;;20.30;99.90;;;;;;5070103;28;20039;-58
2023/06/23 08:57:37;;;;;;;23.45;14.18;;;20.10;99.90;;;;;;5107394;28;20051;-57
2023/06/23 09:00:03;;;;;;;14.55;11.70;;;20.00;99.90;;;;;;5110558;27;20035;-57
2023/06/23 09:02:29;;;;;;;13.23;11.82;;;19.90;99.90;;;;;;5082807;28;20038;-56
2023/06/23 09:04:55;;;;;;;12.82;11.43;;;19.70;99.90;;;;;;5073391;28;20058;-57
2023/06/23 09:07:20;;;;;;;13.57;11.95;;;19.70;99.90;;;;;;5099398;27;20056;-58
2023/06/23 09:09:47;;;;;;;12.30;11.00;;;19.70;99.90;;;;;;5069540;28;20024;-57
2023/06/23 09:12:16;;;;;;;13.18;11.05;;;19.50;99.90;;;;;;5100189;28;20099;-57
2023/06/23 09:14:43;;;;;;;14.60;10.95;;;19.50;99.90;;;;;;5069684;28;20030;-57
2023/06/23 09:17:09;;;;;;;11.90;10.43;;;19.20;99.90;;;;;;5101407;28;20111;-56
2023/06/23 09:19:37;;;;;;;11.57;9.68;;;19.00;99.90;;;;;;5069761;28;20459;-55
2023/06/23 09:22:03;;;;;;;10.18;8.80;;;18.90;99.90;;;;;;5102705;28;20027;-50
2023/06/23 09:24:43;;;;;;;15.73;10.65;;;18.90;99.90;;;;;;5069329;28;20511;-56
2023/06/23 09:27:09;;;;;;;13.98;9.57;;;18.90;99.90;;;;;;5101625;28;20032;-57
2023/06/23 09:29:37;;;;;;;10.32;9.30;;;18.90;99.90;;;;;;5090078;28;20799;-56
2023/06/23 09:32:03;;;;;;;10.70;9.55;;;19.00;99.90;;;;;;5085806;28;20503;-55
2023/06/23 09:34:31;;;;;;;12.40;10.00;;;19.10;99.90;;;;;;5069507;28;20021;-53
2023/06/23 09:37:11;;;;;;;12.63;11.07;;;19.20;99.90;;;;;;5104726;28;20020;-56
2023/06/23 09:39:43;;;;;;;13.13;10.65;;;19.30;99.90;;;;;;5067878;28;20511;-56
2023/06/23 09:42:13;;;;;;;13.68;9.77;;;19.30;99.90;;;;;;5101832;28;20092;-56
2023/06/23 09:44:40;;;;;;;12.77;9.93;;;19.40;99.90;;;;;;5069240;28;20098;-56
2023/06/23 09:47:06;;;;;;;10.10;9.10;;;19.40;99.90;;;;;;5101864;28;20028;-52
2023/06/23 09:49:39;;;;;;;12.45;10.15;;;19.60;99.90;;;;;;5069241;28;20563;-54
2023/06/23 09:52:06;;;;;;;13.82;9.95;;;19.50;99.90;;;;;;5101936;28;20030;-55
2023/06/23 09:54:36;;;;;;;11.93;9.52;;;19.40;99.90;;;;;;5068888;28;20024;-56
2023/06/23 09:57:12;;;;;;;11.95;9.60;;;19.40;99.90;;;;;;5102326;28;20042;-55
2023/06/23 09:59:39;;;;;;;11.68;8.95;;;19.40;99.90;;;;;;5094110;28;20534;-56
2023/06/23 10:02:07;;;;;;;11.63;10.05;;;19.30;99.90;;;;;;5068779;28;20036;-56
2023/06/23 10:04:32;;;;;;;11.90;10.57;;;19.30;99.90;;;;;;5106429;28;20821;-56
2023/06/23 10:07:16;;;;;;;10.80;9.70;;;19.20;99.90;;;;;;5063466;28;20036;-56
2023/06/23 10:09:49;;;;;;;11.40;10.20;;;19.10;99.90;;;;;;5068658;28;20044;-57
2023/06/23 10:12:14;;;;;;;9.77;8.77;;;19.10;99.90;;;;;;5067035;28;20107;-56
2023/06/23 10:14:40;;;;;;;12.07;8.73;;;19.10;99.90;;;;;;5107804;28;20118;-56
2023/06/23 10:17:06;;;;;;;10.85;8.60;;;19.10;99.90;;;;;;5069946;28;20029;-56
2023/06/23 10:19:32;;;;;;;11.95;8.90;;;19.10;99.90;;;;;;5107811;28;20054;-56
2023/06/23 10:21:57;;;;;;;9.27;8.00;;;19.20;99.90;;;;;;5068256;28;20408;-55
2023/06/23 10:24:23;;;;;;;8.25;7.45;;;19.30;99.90;;;;;;5087216;28;20020;-56
2023/06/23 10:26:51;;;;;;;7.95;7.13;;;19.20;99.90;;;;;;5086912;28;20140;-54
2023/06/23 10:29:19;;;;;;;9.43;7.85;;;19.20;99.90;;;;;;5083287;28;20086;-55
2023/06/23 10:31:46;;;;;;;12.82;8.07;;;19.20;99.90;;;;;;5087901;28;20468;-55
2023/06/23 10:34:13;;;;;;;10.30;7.90;;;19.10;99.90;;;;;;5068073;28;20508;-56
2023/06/23 10:36:41;;;;;;;8.60;7.80;;;19.10;99.90;;;;;;5110066;28;20483;-55
2023/06/23 10:39:10;;;;;;;10.13;7.70;;;19.20;99.90;;;;;;5071025;28;20115;-55
2023/06/23 10:41:37;;;;;;;8.38;6.43;;;19.20;99.90;;;;;;5111577;28;20040;-56
2023/06/23 10:44:04;;;;;;;9.45;8.10;;;19.20;99.90;;;;;;5071487;28;20029;-55
2023/06/23 10:46:29;;;;;;;8.77;7.20;;;19.20;99.90;;;;;;5110876;28;20032;-54
2023/06/23 10:48:56;;;;;;;8.52;7.30;;;19.20;99.90;;;;;;5072320;28;20411;-55
2023/06/23 10:51:23;;;;;;;7.72;6.50;;;19.20;99.90;;;;;;5110884;28;20110;-56
2023/06/23 10:54:01;;;;;;;8.30;7.43;;;19.20;99.90;;;;;;5073271;27;20028;-56
2023/06/23 10:56:32;;;;;;;7.32;6.57;;;19.20;99.90;;;;;;5111342;28;20027;-55
2023/06/23 10:58:58;;;;;;;12.13;7.30;;;19.20;99.90;;;;;;5071906;28;20032;-54
2023/06/23 11:01:24;;;;;;;7.40;6.70;;;19.10;99.90;;;;;;5097546;28;20021;-55
2023/06/23 11:03:52;;;;;;;9.77;6.72;;;19.20;99.90;;;;;;5071177;28;20024;-54
2023/06/23 11:06:27;;;;;;;8.18;6.95;;;19.10;99.90;;;;;;5084250;28;20029;-56
2023/06/23 11:08:52;;;;;;;8.52;5.97;;;19.00;99.90;;;;;;5067277;28;20020;-55
2023/06/23 11:11:30;;;;;;;8.02;7.22;;;18.90;99.90;;;;;;5098739;28;20519;-55
2023/06/23 11:13:56;;;;;;;7.60;6.85;;;18.90;99.90;;;;;;5070865;28;20028;-56
2023/06/23 11:16:34;;;;;;;9.48;6.88;;;18.90;99.90;;;;;;5097955;28;20485;-55
2023/06/23 11:19:02;;;;;;;7.95;6.63;;;18.80;99.90;;;;;;5070763;28;20024;-55
2023/06/23 11:21:27;;;;;;;7.28;6.57;;;18.80;99.90;;;;;;5095370;28;20055;-54
2023/06/23 11:24:13;;;;;;;9.13;6.93;;;18.90;99.90;;;;;;5070582;28;20032;-53
2023/06/23 11:27:05;;;;;;;7.20;5.78;;;18.90;99.90;;;;;;5075373;28;20377;-55
2023/06/23 11:29:31;;;;;;;8.27;6.88;;;18.90;99.90;;;;;;5087989;28;20047;-55
2023/06/23 11:32:12;;;;;;;6.70;5.93;;;18.80;99.90;;;;;;5078941;28;20031;-55
2023/06/23 11:34:56;;;;;;;10.55;7.05;;;18.80;99.90;;;;;;5109403;28;20120;-51
2023/06/23 11:37:26;;;;;;;13.82;8.27;;;18.80;99.90;;;;;;5082146;28;20058;-56
2023/06/23 11:39:54;;;;;;;8.10;7.20;;;18.70;99.90;;;;;;5070429;28;20033;-53
2023/06/23 11:42:19;;;;;;;7.75;6.32;;;18.80;99.90;;;;;;5081688;28;20058;-53
2023/06/23 11:44:46;;;;;;;10.60;8.55;;;18.80;99.90;;;;;;5109617;28;20058;-53
2023/06/23 11:47:11;;;;;;;9.60;7.60;;;18.80;99.90;;;;;;5076384;28;20032;-55
2023/06/23 11:49:37;;;;;;;9.05;7.65;;;18.70;99.90;;;;;;5109277;28;20431;-54
2023/06/23 11:52:04;;;;;;;13.05;9.38;;;18.80;99.90;;;;;;5100009;28;20035;-54
2023/06/23 11:54:35;;;;;;;10.48;9.02;;;18.80;99.90;;;;;;5090717;28;20028;-53
2023/06/23 11:57:02;;;;;;;10.50;7.82;;;18.80;99.90;;;;;;5108126;28;20157;-55
2023/06/23 11:59:33;;;;;;;9.60;8.00;;;18.80;99.90;;;;;;5090474;28;20046;-55
2023/06/23 12:01:59;;;;;;;10.43;8.32;;;18.90;99.90;;;;;;5068373;28;20029;-55
2023/06/23 12:04:25;;;;;;;11.93;9.35;;;18.90;99.90;;;;;;5109385;28;20420;-52
2023/06/23 12:06:54;;;;;;;10.45;7.95;;;18.90;99.90;;;;;;5072610;28;20037;-55
2023/06/23 12:09:20;;;;;;;9.43;8.23;;;18.80;99.90;;;;;;5090852;28;20033;-51
2023/06/23 12:11:46;;;;;;;11.30;8.98;;;18.70;99.90;;;;;;5087477;28;20020;-55
2023/06/23 12:14:12;;;;;;;10.82;7.90;;;18.70;99.90;;;;;;5090261;28;20024;-55
2023/06/23 12:16:37;;;;;;;9.32;8.07;;;18.70;99.90;;;;;;5110382;28;20022;-54
2023/06/23 12:19:03;;;;;;;11.10;7.47;;;18.70;99.90;;;;;;5087413;28;20034;-53
2023/06/23 12:21:28;;;;;;;8.20;7.18;;;18.70;99.90;;;;;;5069882;28;20095;-55
2023/06/23 12:23:56;;;;;;;8.95;8.05;;;18.70;99.90;;;;;;5107753;28;20077;-55
2023/06/23 12:26:21;;;;;;;8.98;8.07;;;18.70;99.90;;;;;;5069982;28;20060;-55
2023/06/23 12:28:48;;;;;;;8.55;7.75;;;18.70;99.90;;;;;;5104693;28;20063;-52
2023/06/23 12:31:26;;;;;;;10.50;8.32;;;18.80;99.90;;;;;;5068578;28;20115;-54
2023/06/23 12:33:52;;;;;;;9.43;7.95;;;18.90;99.90;;;;;;5077697;28;20102;-54
2023/06/23 12:36:17;;;;;;;9.32;8.23;;;18.90;99.90;;;;;;5085560;28;20040;-55